Latest Weather Observations for Nhill Aerodrome

IDV60801

Issued at 11:12 pm EST Saturday 25 May 2019 (issued every 10 minutes, with the page automatically refreshed every 10 minutes)

About weather observations | Map of weather stations | Latest weather observations for VIC | Other Formats
Station Details ID: 078015 Name: NHILL AERODROME Lat: -36.31 Lon: 141.65 Height: 138.9 m
Data from the previous 72 hours. | See also: Recent months at Nhill Aerodrome
Date/Time
EST
Temp
°C
App
Temp
°C
Dew
Point
°C
Rel
Hum
%
Delta-T
°C
Wind Press
QNH
hPa
Press
MSL
hPa
Rain since
9am
mm
Dir  Spd
km/h
Gust
km/h
Spd
kts
Gust
kts
25/11:00pm 9.4 6.5 8.2 92 0.6 WNW 13 15 7 8 1015.8 1015.8 5.6
25/10:30pm 9.2 6.6 7.8 91 0.7 WNW 11 15 6 8 1015.6 1015.6 5.6
25/10:00pm 9.5 6.6 8.1 91 0.7 NW 13 15 7 8 1015.5 1015.5 5.6
25/09:30pm 9.6 6.7 8.0 90 0.8 WNW 13 19 7 10 1015.5 1015.5 5.4
25/09:00pm 9.9 6.3 8.3 90 0.8 W 17 20 9 11 1015.3 1015.3 5.4
25/08:30pm 10.6 7.1 8.9 89 0.8 W 17 20 9 11 1015.0 1015.0 5.4
25/08:00pm 11.0 8.1 9.6 91 0.7 WNW 15 20 8 11 1015.0 1015.0 5.4
25/07:30pm 11.0 8.0 9.4 90 0.8 WNW 15 17 8 9 1014.4 1014.4 5.4
25/07:00pm 11.3 7.7 9.7 90 0.8 W 19 24 10 13 1014.1 1014.1 5.4
25/06:30pm 11.8 7.7 10.2 90 0.8 W 22 30 12 16 1013.6 1013.6 5.4
25/06:00pm 12.1 7.7 10.3 89 0.9 W 24 33 13 18 1013.3 1013.3 5.2
25/05:30pm 12.3 9.3 10.7 90 0.8 WNW 17 20 9 11 1012.8 1012.9 5.2
25/05:00pm 12.3 9.1 11.2 93 0.6 WNW 19 22 10 12 1012.6 1012.7 5.2
25/04:30pm 12.3 8.9 11.4 94 0.5 W 20 30 11 16 1012.8 1012.9 5.2
25/04:00pm 12.0 8.1 10.9 93 0.6 WNW 22 30 12 16 1012.6 1012.7 4.2
25/03:30pm 12.2 7.9 10.6 90 0.8 WNW 24 32 13 17 1012.5 1012.6 1.8
25/03:00pm 14.4 9.4 10.8 79 1.9 WNW 28 43 15 23 1012.1 1012.2 0.4
25/02:30pm 14.8 8.9 10.6 76 2.2 NW 32 41 17 22 1012.1 1012.2 0.4
25/02:00pm 14.6 8.9 11.0 79 1.9 NW 32 41 17 22 1012.4 1012.5 0.4
25/01:30pm 15.3 10.9 10.3 72 2.6 NW 24 35 13 19 1012.6 1012.7 0.4
25/01:00pm 15.9 11.5 11.7 76 2.3 NW 26 37 14 20 1013.0 1013.1 0.4
25/12:30pm 15.2 10.1 11.8 80 1.8 NW 30 43 16 23 1013.6 1013.6 0.4
25/12:00pm 14.7 10.3 11.7 82 1.6 WNW 26 41 14 22 1014.2 1014.2 0.0
25/11:30am 16.1 11.3 11.7 75 2.4 NW 28 37 15 20 1014.5 1014.5 0.0
25/11:00am 14.6 10.8 12.5 87 1.2 NW 24 37 13 20 1014.8 1014.8 0.0
25/10:30am 12.7 10.3 12.5 99 0.1 NNW 17 22 9 12 1014.9 1014.9 0.0
25/10:00am 11.2 7.8 11.2 100 0.0 NNW 20 28 11 15 1015.1 1015.1 0.0
25/09:30am 10.4 6.3 10.2 99 0.1 NNW 22 28 12 15 1015.2 1015.2 0.0
25/09:00am 10.0 6.4 9.9 99 0.1 NNW 19 24 10 13 1015.1 1015.1 0.4
25/08:30am 9.3 7.1 9.2 99 0.0 NNW 11 17 6 9 1015.1 1015.1 0.4
25/08:00am 8.3 5.8 8.2 99 0.0 NNW 11 15 6 8 1015.2 1015.2 0.4
25/07:30am 8.6 5.8 8.5 99 0.0 NNW 13 17 7 9 1015.0 1015.0 0.4
25/07:00am 9.1 6.8 9.0 99 0.0 NNW 11 15 6 8 1014.7 1014.7 0.4
25/06:30am 9.4 6.8 9.3 99 0.0 NNW 13 19 7 10 1014.9 1014.9 0.4
25/06:00am 9.4 6.8 9.3 99 0.0 NNW 13 19 7 10 1014.7 1014.7 0.4
25/05:30am 9.5 6.5 9.4 99 0.0 NNW 15 22 8 12 1014.9 1014.9 0.4
25/05:00am 10.0 7.6 9.9 99 0.1 NNW 13 17 7 9 1014.8 1014.8 0.4
25/04:30am 10.3 7.5 10.0 98 0.2 NW 15 19 8 10 1014.8 1014.8 0.4
25/04:00am 10.5 7.8 10.2 98 0.2 NNW 15 24 8 13 1015.1 1015.1 0.4
25/03:30am 10.7 8.4 10.4 98 0.2 NNW 13 19 7 10 1015.2 1015.2 0.4
25/03:00am 11.1 8.5 10.6 97 0.3 NNW 15 19 8 10 1015.4 1015.4 0.4
25/02:30am 10.6 6.9 10.1 97 0.3 NW 20 24 11 13 1015.7 1015.7 0.4
25/02:00am 10.8 8.4 10.2 96 0.3 NW 13 17 7 9 1015.5 1015.5 0.4
25/01:30am 10.8 8.4 10.2 96 0.3 NW 13 17 7 9 1015.8 1015.8 0.4
25/01:00am 10.5 8.8 9.7 95 0.4 NW 9 15 5 8 1016.1 1016.1 0.4
25/12:30am 10.5 8.4 9.6 94 0.5 NW 11 13 6 7 1016.1 1016.1 0.4
25/12:00am 10.4 8.2 9.3 93 0.6 NW 11 15 6 8 1016.2 1016.2 0.4
 
Date/Time
EST
Temp
°C
App
Temp
°C
Dew
Point
°C
Rel
Hum
%
Delta-T
°C
Wind Press
QNH
hPa
Press
MSL
hPa
Rain since
9am
mm
Dir  Spd
km/h
Gust
km/h
Spd
kts
Gust
kts
24/11:30pm 11.0 9.3 9.9 93 0.6 NW 9 11 5 6 1016.3 1016.3 0.4
24/11:00pm 11.7 9.7 10.3 91 0.7 NNW 11 13 6 7 1016.2 1016.2 0.4
24/10:30pm 12.0 10.5 10.4 90 0.8 NW 9 11 5 6 1016.4 1016.4 0.4
24/10:00pm 12.3 10.8 10.5 89 0.9 NW 9 11 5 6 1016.4 1016.4 0.4
24/09:30pm 13.0 11.6 10.9 87 1.1 NW 9 11 5 6 1016.3 1016.3 0.4
24/09:00pm 13.5 12.5 10.9 84 1.4 WNW 7 13 4 7 1016.5 1016.5 0.4
24/08:30pm 14.1 13.2 11.4 84 1.4 WNW 7 9 4 5 1016.5 1016.5 0.4
24/08:00pm 14.8 13.6 11.6 81 1.7 W 9 11 5 6 1016.4 1016.4 0.4
24/07:30pm 15.5 14.0 11.9 79 2.0 W 11 15 6 8 1016.4 1016.4 0.4
24/07:00pm 16.3 13.7 12.1 76 2.3 WSW 17 20 9 11 1016.1 1016.1 0.4
24/06:30pm 17.1 13.3 12.4 74 2.6 WSW 24 33 13 18 1015.8 1015.8 0.4
24/06:00pm 18.2 13.9 12.0 67 3.4 WSW 26 33 14 18 1015.4 1015.4 0.4
24/05:30pm 19.8 15.8 10.5 55 5.1 W 22 28 12 15 1015.0 1015.0 0.4
24/05:00pm 20.5 15.2 10.0 51 5.7 WNW 28 39 15 21 1014.8 1014.8 0.4
24/04:30pm 20.7 16.9 11.1 54 5.3 WNW 22 32 12 17 1014.8 1014.8 0.4
24/04:00pm 21.2 17.2 11.8 55 5.3 W 24 33 13 18 1014.5 1014.5 0.4
24/03:34pm 22.9 16.4 10.3 45 7.0 NW 35 50 19 27 1014.3 1014.3 0.4
24/03:30pm 23.4 15.4 7.5 36 8.4 NW 39 54 21 29 1013.8 1013.8 0.4
24/03:00pm 22.9 15.9 8.6 40 7.7 NW 35 48 19 26 1014.0 1014.0 0.4
24/02:30pm 22.2 14.4 8.3 41 7.4 NW 39 56 21 30 1014.0 1014.0 0.4
24/02:04pm 22.5 13.7 8.2 40 7.6 NW 44 63 24 34 1014.3 1014.3 0.4
24/02:00pm 22.7 14.0 8.4 40 7.6 NW 44 59 24 32 1014.1 1014.1 0.4
24/01:32pm 23.4 17.3 10.5 44 7.2 NNW 33 52 18 28 1014.4 1014.4 0.4
24/01:30pm 23.4 17.4 10.8 45 7.0 NNW 33 48 18 26 1014.4 1014.4 0.4
24/01:23pm 22.8 16.3 10.3 45 6.9 NNW 35 48 19 26 1014.4 1014.4 0.4
24/01:00pm 21.5 18.5 12.1 55 5.3 N 19 30 10 16 1014.9 1014.9 0.4
24/12:30pm 19.5 17.2 11.8 61 4.3 N 15 24 8 13 1015.5 1015.5 0.2
24/12:00pm 19.0 17.5 11.8 63 4.0 NNW 11 17 6 9 1015.9 1015.9 0.2
24/11:30am 16.7 16.6 12.0 74 2.6 NE 4 7 2 4 1016.7 1016.7 0.2
24/11:00am 16.8 14.4 11.3 70 3.0 N 15 24 8 13 1016.8 1016.8 0.0
24/10:30am 16.3 14.2 11.2 72 2.8 N 13 20 7 11 1017.6 1017.6 0.0
24/10:00am 15.8 14.2 11.4 75 2.4 N 11 19 6 10 1018.0 1018.1 0.0
24/09:30am 15.7 13.5 10.7 72 2.7 N 13 19 7 10 1018.6 1018.7 0.0
24/09:00am 13.8 13.1 11.3 85 1.3 N 6 9 3 5 1018.7 1018.8 2.2
24/08:30am 13.6 12.6 11.1 85 1.3 N 7 9 4 5 1018.7 1018.8 2.2
24/08:00am 13.3 12.5 11.0 86 1.2 NNW 6 13 3 7 1018.6 1018.7 2.0
24/07:30am 13.5 13.1 11.2 86 1.2 NNE 4 7 2 4 1018.7 1018.8 2.0
24/07:00am 13.4 12.5 11.3 87 1.1 NE 7 11 4 6 1017.9 1017.9 2.0
24/06:30am 13.4 12.5 11.3 87 1.1 NNE 7 11 4 6 1018.4 1018.5 2.0
24/06:00am 13.6 12.8 11.1 85 1.3 WNW 6 13 3 7 1018.6 1018.7 2.0
24/05:30am 14.1 10.9 11.3 83 1.5 WNW 19 26 10 14 1019.6 1019.7 1.8
24/05:01am 14.8 7.0 11.2 79 1.9 W 43 63 23 34 1019.3 1019.4 1.0
24/05:00am 14.9 6.9 11.1 78 2.0 W 44 67 24 36 1019.3 1019.4 1.0
24/04:48am 16.4 12.8 10.0 66 3.4 NW 19 52 10 28 1018.9 1019.0 0.8
24/04:30am 16.6 11.5 10.5 67 3.3 N 28 54 15 29 1016.9 1016.9 0.8
24/04:27am 16.5 12.2 10.8 69 3.1 N 24 54 13 29 1016.7 1016.7 0.8
24/04:00am 13.3 11.0 10.5 83 1.5 N 13 22 7 12 1018.0 1018.1 0.4
24/03:30am 13.2 11.7 9.3 77 2.0 NE 7 11 4 6 1018.0 1018.1 0.0
24/03:00am 13.2 11.8 9.6 79 1.8 NE 7 13 4 7 1018.3 1018.4 0.0
24/02:30am 12.7 10.9 9.5 81 1.6 NE 9 13 5 7 1018.3 1018.4 0.0
24/02:00am 12.5 10.7 9.5 82 1.5 NNE 9 13 5 7 1018.7 1018.8 0.0
24/01:30am 13.1 11.9 9.5 79 1.8 NNW 6 9 3 5 1019.8 1019.9 0.0
24/01:00am 12.4 11.0 8.9 79 1.8 NNW 6 7 3 4 1019.5 1019.6 0.0
24/12:30am 12.8 12.7 9.3 79 1.8 CALM 0 0 0 0 1019.9 1020.0 0.0
24/12:00am 12.4 12.1 8.7 78 1.9 CALM 0 0 0 0 1019.7 1019.8 0.0
 
Date/Time
EST
Temp
°C
App
Temp
°C
Dew
Point
°C
Rel
Hum
%
Delta-T
°C
Wind Press
QNH
hPa
Press
MSL
hPa
Rain since
9am
mm
Dir  Spd
km/h
Gust
km/h
Spd
kts
Gust
kts
23/11:30pm 13.8 12.6 9.6 76 2.2 WSW 6 7 3 4 1020.1 1020.2 0.0
23/11:00pm 14.6 13.1 9.2 70 2.8 WSW 7 9 4 5 1020.2 1020.3 0.0
23/10:30pm 14.9 13.6 9.3 69 2.9 WSW 6 7 3 4 1020.2 1020.3 0.0
23/10:00pm 15.4 14.1 9.1 66 3.2 WSW 6 7 3 4 1020.4 1020.5 0.0
23/09:30pm 15.8 14.2 8.8 63 3.6 W 7 9 4 5 1020.5 1020.6 0.0
23/09:00pm 16.2 14.1 8.4 60 4.0 WNW 9 13 5 7 1020.7 1020.7 0.0
23/08:30pm 16.6 13.9 7.5 55 4.6 NW 11 13 6 7 1020.5 1020.6 0.0
23/08:00pm 18.1 14.5 6.9 48 5.6 NW 15 17 8 9 1020.3 1020.4 0.0
23/07:30pm 19.4 15.7 6.5 43 6.5 NNW 15 20 8 11 1019.7 1019.8 0.0
23/07:00pm 20.1 16.9 6.8 42 6.7 N 13 19 7 10 1019.6 1019.7 0.0
23/06:30pm 20.3 17.1 7.0 42 6.8 N 13 19 7 10 1019.4 1019.5 0.0
23/06:00pm 20.9 18.1 6.8 40 7.2 N 11 15 6 8 1019.5 1019.6 0.0
23/05:30pm 22.2 18.5 6.4 36 8.1 NNW 15 26 8 14 1019.5 1019.6 0.0
23/05:00pm 23.3 18.9 6.6 34 8.6 NNW 19 32 10 17 1019.6 1019.7 0.0
23/04:30pm 24.3 18.7 7.0 33 9.1 NNW 26 37 14 20 1019.6 1019.7 0.0
23/04:00pm 24.8 19.6 7.4 33 9.2 NNW 24 39 13 21 1019.6 1019.7 0.0
23/03:30pm 24.9 19.3 7.1 32 9.4 NNW 26 41 14 22 1020.0 1020.1 0.0
23/03:00pm 24.5 19.6 8.5 36 8.6 NNW 24 39 13 21 1020.2 1020.3 0.0
23/02:30pm 24.9 19.8 9.2 37 8.6 NNW 26 39 14 21 1020.5 1020.6 0.0
23/02:00pm 24.5 19.7 8.9 37 8.4 NNW 24 37 13 20 1021.1 1021.1 0.0
23/01:30pm 23.9 18.8 9.1 39 8.0 NNW 26 41 14 22 1021.7 1021.7 0.0
23/01:00pm 23.4 18.1 9.8 42 7.4 NW 28 39 15 21 1022.3 1022.3 0.0
23/12:30pm 23.4 19.7 10.1 43 7.3 NNW 20 32 11 17 1022.9 1022.9 0.0
23/12:00pm 22.5 19.0 10.3 46 6.7 NNW 19 26 10 14 1023.6 1023.6 0.0
23/11:30am 21.1 17.9 10.0 49 6.0 NNW 17 24 9 13 1024.1 1024.2 0.0
23/11:00am 20.4 17.2 9.9 51 5.6 N 17 26 9 14 1024.5 1024.6 0.0
23/10:30am 18.1 15.0 8.9 55 4.8 N 15 24 8 13 1024.6 1024.7 0.0
23/10:00am 16.2 13.4 8.7 61 3.8 N 13 20 7 11 1024.9 1025.0 0.0
23/09:30am 14.1 11.0 7.4 64 3.3 N 13 19 7 10 1025.2 1025.3 0.0
23/09:00am 12.5 9.2 6.3 66 2.9 N 13 20 7 11 1025.5 1025.6 0.0
23/08:30am 10.2 7.5 5.4 72 2.2 NNE 9 15 5 8 1025.5 1025.6 0.0
23/08:00am 9.0 6.5 4.8 75 1.9 NNE 7 13 4 7 1025.5 1025.6 0.0
23/07:30am 8.3 5.9 4.3 76 1.8 NE 6 9 3 5 1025.4 1025.5 0.0
23/07:00am 8.4 5.8 4.4 76 1.8 NE 7 11 4 6 1025.2 1025.3 0.0
23/06:30am 8.4 5.8 4.4 76 1.8 NE 7 11 4 6 1025.1 1025.2 0.0
23/06:00am 8.6 6.2 4.4 75 1.8 NNE 6 9 3 5 1025.1 1025.2 0.0
23/05:30am 8.1 6.4 3.9 75 1.8 NNE 2 6 1 3 1025.1 1025.2 0.0
23/05:00am 8.7 6.1 4.1 73 2.0 NNE 7 11 4 6 1025.0 1025.1 0.0
23/04:30am 8.8 6.2 4.0 72 2.1 NNE 7 11 4 6 1025.0 1025.1 0.0
23/04:00am 9.3 6.7 4.1 70 2.3 NE 7 9 4 5 1025.3 1025.4 0.0
23/03:30am 9.1 6.7 4.1 71 2.2 NE 6 9 3 5 1025.5 1025.6 0.0
23/03:00am 9.6 6.5 3.6 66 2.6 NE 9 11 5 6 1025.7 1025.8 0.0
23/02:30am 8.5 5.6 4.5 76 1.8 E 9 11 5 6 1025.8 1025.9 0.0
23/02:00am 6.5 4.9 2.6 76 1.6 CALM 0 0 0 0 1026.0 1026.1 0.0
23/01:30am 7.8 6.0 3.5 74 1.9 SE 2 6 1 3 1026.0 1026.1 0.0
23/01:00am 8.0 5.2 3.3 72 2.0 SE 7 9 4 5 1026.2 1026.3 0.0
23/12:30am 9.4 7.3 3.8 68 2.5 SE 4 7 2 4 1026.4 1026.5 0.0
23/12:00am 9.4 6.8 4.0 69 2.4 SSE 7 9 4 5 1026.6 1026.7 0.0
 
Date/Time
EST
Temp
°C
App
Temp
°C
Dew
Point
°C
Rel
Hum
%
Delta-T
°C
Wind Press
QNH
hPa
Press
MSL
hPa
Rain since
9am
mm
Dir  Spd
km/h
Gust
km/h
Spd
kts
Gust
kts
22/11:30pm 7.9 5.3 3.0 71 2.1 S 6 7 3 4 1026.6 1026.7 0.0

Other formats

Comma delimited format used in spreadsheet applications
http://www.bom.gov.au/fwo/IDV60801/IDV60801.94827.axf

JavaScript Object Notation format (JSON) in row-major order
http://www.bom.gov.au/fwo/IDV60801/IDV60801.94827.json

Data quality

Most of these data are generated automatically and are frequently updated. Quality checks on data are not normally performed. It is possible for incorrect values to appear. Refer to information at About Latest Weather Observations and please check the disclaimer before using these data.